createdAt,value
2022-11-29T00:01:41.437Z,11.30
2022-11-29T00:04:10.181Z,11.20
2022-11-29T00:06:38.996Z,11.20
2022-11-29T00:09:11.909Z,11.60
2022-11-29T00:12:02.002Z,10.80
2022-11-29T00:14:30.454Z,12.80
2022-11-29T00:17:04.585Z,13.10
2022-11-29T00:19:35.104Z,10.70
2022-11-29T00:22:04.137Z,11.40
2022-11-29T00:24:32.752Z,11.90
2022-11-29T00:27:01.582Z,11.90
2022-11-29T00:29:30.635Z,11.40
2022-11-29T00:31:59.256Z,12.50
2022-11-29T00:34:27.662Z,12.00
2022-11-29T00:36:55.589Z,11.70
2022-11-29T00:39:23.935Z,10.10
2022-11-29T00:41:52.272Z,10.70
2022-11-29T00:44:20.827Z,10.80
2022-11-29T00:46:49.759Z,11.10
2022-11-29T00:49:18.271Z,10.30
2022-11-29T00:51:47.202Z,7.90
2022-11-29T00:54:16.289Z,10.60
2022-11-29T00:56:44.591Z,9.50
2022-11-29T00:59:12.539Z,11.00
2022-11-29T01:01:40.532Z,9.90
2022-11-29T01:04:08.486Z,9.00
2022-11-29T01:06:36.513Z,10.90
2022-11-29T01:09:05.452Z,10.90
2022-11-29T01:11:34.103Z,12.00
2022-11-29T01:14:03.802Z,10.60
2022-11-29T01:16:32.257Z,10.10
2022-11-29T01:19:00.684Z,6.50
2022-11-29T01:21:29.281Z,9.00
2022-11-29T01:23:57.199Z,9.20
2022-11-29T01:26:29.214Z,9.50
2022-11-29T01:28:58.796Z,10.50
2022-11-29T01:31:31.259Z,10.40
2022-11-29T01:34:03.598Z,8.90
2022-11-29T01:36:34.868Z,9.50
2022-11-29T01:39:06.202Z,10.00
2022-11-29T01:41:37.894Z,9.40
2022-11-29T01:44:25.697Z,8.90
2022-11-29T01:46:55.339Z,8.00
2022-11-29T01:49:32.997Z,9.80
2022-11-29T01:52:11.419Z,8.50
2022-11-29T01:54:45.509Z,8.10
2022-11-29T01:57:14.605Z,9.80
2022-11-29T01:59:48.300Z,9.40
2022-11-29T02:02:29.487Z,9.00
2022-11-29T02:05:00.732Z,8.10
2022-11-29T02:07:29.039Z,9.50
2022-11-29T02:09:56.962Z,10.40
2022-11-29T02:12:40.360Z,9.10
2022-11-29T02:15:26.663Z,10.50
2022-11-29T02:18:11.459Z,10.00
2022-11-29T02:21:43.198Z,11.30
2022-11-29T02:24:42.120Z,10.70
2022-11-29T02:27:43.920Z,11.10
2022-11-29T02:30:49.884Z,11.40
2022-11-29T02:34:07.273Z,9.90
2022-11-29T02:37:07.156Z,10.40
2022-11-29T02:40:01.029Z,8.90
2022-11-29T02:43:16.247Z,9.60
2022-11-29T02:45:51.596Z,7.50
2022-11-29T02:49:07.654Z,8.00
2022-11-29T02:51:48.293Z,9.90
2022-11-29T02:54:40.727Z,9.30
2022-11-29T02:57:45.651Z,9.40
2022-11-29T03:00:18.066Z,8.80
2022-11-29T03:02:52.302Z,8.80
2022-11-29T03:05:47.332Z,7.50
2022-11-29T03:08:34.603Z,7.50
2022-11-29T03:11:30.445Z,6.70
2022-11-29T03:14:31.160Z,7.00
2022-11-29T03:17:12.976Z,6.70
2022-11-29T03:20:13.075Z,5.40
2022-11-29T03:23:19.513Z,6.20
2022-11-29T03:25:59.698Z,5.30
2022-11-29T03:28:55.393Z,6.80
2022-11-29T03:31:32.229Z,6.80
2022-11-29T03:34:23.075Z,4.80
2022-11-29T03:37:16.384Z,5.70
2022-11-29T03:39:44.184Z,4.60
2022-11-29T03:42:34.490Z,5.80
2022-11-29T03:45:22.944Z,5.40
2022-11-29T03:48:22.041Z,6.50
2022-11-29T03:50:57.056Z,6.60
2022-11-29T03:53:56.938Z,5.10
2022-11-29T03:56:32.780Z,6.90
2022-11-29T03:59:19.577Z,4.00
2022-11-29T04:02:32.331Z,3.90
2022-11-29T04:05:36.027Z,2.60
2022-11-29T04:08:22.686Z,6.00
2022-11-29T04:11:21.932Z,3.80
2022-11-29T04:14:03.413Z,6.50
2022-11-29T04:16:56.827Z,6.10
2022-11-29T04:20:00.207Z,8.10
2022-11-29T04:22:54.129Z,6.40
2022-11-29T04:25:33.974Z,7.20
2022-11-29T04:28:45.012Z,7.90
2022-11-29T04:31:50.792Z,7.10
2022-11-29T04:34:49.820Z,7.40
2022-11-29T04:37:51.853Z,7.50
2022-11-29T04:41:05.994Z,7.60
2022-11-29T04:43:55.114Z,4.30
2022-11-29T04:46:38.503Z,6.70
2022-11-29T04:49:25.999Z,6.90
2022-11-29T04:52:33.596Z,6.50
2022-11-29T04:55:34.025Z,6.20
2022-11-29T04:58:15.067Z,5.60
2022-11-29T05:01:18.556Z,8.20
2022-11-29T05:04:19.234Z,6.60
2022-11-29T05:07:18.873Z,6.80
2022-11-29T05:10:18.506Z,5.40
2022-11-29T05:12:59.861Z,7.10
2022-11-29T05:16:24.035Z,6.60
2022-11-29T05:19:12.192Z,7.00
2022-11-29T05:22:17.546Z,4.80
2022-11-29T05:25:24.467Z,7.40
2022-11-29T05:28:33.425Z,8.10
2022-11-29T05:31:29.777Z,8.90
2022-11-29T05:34:18.277Z,7.50
2022-11-29T05:37:14.613Z,8.00
2022-11-29T05:40:47.390Z,7.70
2022-11-29T05:43:54.881Z,7.80
2022-11-29T05:46:52.255Z,7.80
2022-11-29T05:49:38.640Z,7.70
2022-11-29T05:52:19.666Z,7.20
2022-11-29T05:55:07.120Z,7.60
2022-11-29T05:57:55.499Z,7.80
2022-11-29T06:00:24.799Z,8.80
2022-11-29T06:03:33.941Z,8.70
2022-11-29T06:06:26.184Z,5.00
2022-11-29T06:09:07.781Z,6.30
2022-11-29T06:11:54.047Z,7.00
2022-11-29T06:15:24.018Z,7.60
2022-11-29T06:18:12.664Z,8.70
2022-11-29T06:20:54.658Z,10.20
2022-11-29T06:23:54.847Z,7.50
2022-11-29T06:26:52.251Z,7.70
2022-11-29T06:29:54.245Z,9.50
2022-11-29T06:32:55.224Z,8.80
2022-11-29T06:35:47.993Z,7.60
2022-11-29T06:38:23.047Z,9.10
2022-11-29T06:40:54.952Z,6.70
2022-11-29T06:43:27.383Z,8.10
2022-11-29T06:46:10.146Z,8.70
2022-11-29T06:49:22.100Z,6.60
2022-11-29T06:52:12.988Z,9.70
2022-11-29T06:55:12.737Z,5.30
2022-11-29T06:58:30.310Z,8.50
2022-11-29T07:01:23.926Z,7.40
2022-11-29T07:04:25.560Z,7.50
2022-11-29T07:06:54.005Z,8.80
2022-11-29T07:09:33.266Z,8.40
2022-11-29T07:12:01.676Z,9.40
2022-11-29T07:14:30.087Z,8.60
2022-11-29T07:17:28.914Z,9.20
2022-11-29T07:20:20.231Z,8.80
2022-11-29T07:23:06.262Z,8.40
2022-11-29T07:25:55.943Z,9.80
2022-11-29T07:28:50.475Z,7.90
2022-11-29T07:31:42.635Z,10.10
2022-11-29T07:34:35.528Z,9.30
2022-11-29T07:37:20.461Z,10.30
2022-11-29T07:40:06.820Z,8.90
2022-11-29T07:42:50.064Z,10.20
2022-11-29T07:45:27.785Z,11.40
2022-11-29T07:47:56.012Z,10.80
2022-11-29T07:50:26.072Z,11.40
2022-11-29T07:52:56.017Z,10.40
2022-11-29T07:55:27.081Z,9.00
2022-11-29T07:57:54.968Z,10.00
2022-11-29T08:00:23.373Z,9.20
2022-11-29T08:02:51.832Z,10.20
2022-11-29T08:05:19.800Z,8.60
2022-11-29T08:07:47.895Z,9.00
2022-11-29T08:10:17.538Z,9.00
2022-11-29T08:12:50.286Z,7.70
2022-11-29T08:15:21.159Z,9.20
2022-11-29T08:17:49.660Z,9.30
2022-11-29T08:20:18.270Z,9.70
2022-11-29T08:22:58.723Z,9.10
2022-11-29T08:25:28.139Z,7.80
2022-11-29T08:27:56.588Z,10.00
2022-11-29T08:30:24.712Z,10.70
2022-11-29T08:32:53.252Z,11.00
2022-11-29T08:35:23.354Z,11.50
2022-11-29T08:37:51.477Z,10.10
2022-11-29T08:40:19.653Z,11.60
2022-11-29T08:42:47.537Z,10.10
2022-11-29T08:45:15.485Z,11.90
2022-11-29T08:47:43.834Z,9.70
2022-11-29T08:50:16.665Z,9.90
2022-11-29T08:53:07.917Z,9.40
2022-11-29T08:55:43.257Z,9.20
2022-11-29T08:58:14.750Z,11.10
2022-11-29T09:00:47.074Z,10.20
2022-11-29T09:03:34.062Z,9.30
2022-11-29T09:06:12.723Z,10.30
2022-11-29T09:08:45.649Z,10.00
2022-11-29T09:11:20.028Z,10.50
2022-11-29T09:13:54.531Z,9.80
2022-11-29T09:16:26.671Z,10.20
2022-11-29T09:18:56.235Z,9.40
2022-11-29T09:21:26.990Z,11.90
2022-11-29T09:23:59.422Z,10.90
2022-11-29T09:26:31.498Z,9.80
2022-11-29T09:29:04.334Z,10.10
2022-11-29T09:31:34.782Z,11.10
2022-11-29T09:34:02.995Z,8.80
2022-11-29T09:36:31.704Z,8.10
2022-11-29T09:39:03.043Z,11.00
2022-11-29T09:41:58.482Z,9.90
2022-11-29T09:45:03.010Z,9.70
2022-11-29T09:48:31.368Z,13.10
2022-11-29T09:51:30.349Z,10.00
2022-11-29T09:54:23.956Z,11.60
2022-11-29T09:56:55.853Z,11.20
2022-11-29T09:59:49.489Z,8.50
2022-11-29T10:02:45.582Z,7.70
2022-11-29T10:05:44.670Z,10.90
2022-11-29T10:08:27.858Z,9.70
2022-11-29T10:11:31.025Z,11.20
2022-11-29T10:14:18.034Z,8.20
2022-11-29T10:16:55.120Z,9.90
2022-11-29T10:19:37.973Z,11.70
2022-11-29T10:22:18.600Z,11.20
2022-11-29T10:24:51.960Z,13.20
2022-11-29T10:27:24.043Z,10.60
2022-11-29T10:29:52.149Z,11.60
2022-11-29T10:32:24.279Z,10.80
2022-11-29T10:34:52.358Z,11.70
2022-11-29T10:37:23.426Z,12.70
2022-11-29T10:40:00.582Z,13.40
2022-11-29T10:42:47.730Z,12.40
2022-11-29T10:45:40.212Z,12.10
2022-11-29T10:48:12.671Z,14.60
2022-11-29T10:50:44.523Z,11.60
2022-11-29T10:53:22.885Z,13.00
2022-11-29T10:56:00.867Z,11.60
2022-11-29T10:58:31.128Z,11.40
2022-11-29T11:01:17.420Z,11.40
2022-11-29T11:03:58.025Z,11.60
2022-11-29T11:06:49.253Z,12.70
2022-11-29T11:09:28.083Z,12.50
2022-11-29T11:12:00.951Z,12.00
2022-11-29T11:14:34.667Z,11.10
2022-11-29T11:17:27.092Z,12.50
2022-11-29T11:20:06.609Z,12.00
2022-11-29T11:22:40.168Z,10.60
2022-11-29T11:25:35.292Z,12.70
2022-11-29T11:28:27.199Z,12.30
2022-11-29T11:31:16.211Z,10.80
2022-11-29T11:33:46.458Z,9.70
2022-11-29T11:36:20.357Z,10.70
2022-11-29T11:38:55.827Z,10.50
2022-11-29T11:41:55.877Z,10.70
2022-11-29T11:44:47.846Z,11.60
2022-11-29T11:47:22.804Z,11.80
2022-11-29T11:50:02.498Z,11.80
2022-11-29T11:52:50.162Z,8.80
2022-11-29T11:55:21.791Z,12.40
2022-11-29T11:58:10.328Z,11.00
2022-11-29T12:01:06.070Z,9.10
2022-11-29T12:03:52.832Z,9.00
2022-11-29T12:06:43.262Z,9.20
2022-11-29T12:09:40.767Z,9.10
2022-11-29T12:12:23.366Z,9.00
2022-11-29T12:15:34.305Z,11.30
2022-11-29T12:18:12.677Z,10.20
2022-11-29T12:21:07.615Z,11.50
2022-11-29T12:24:10.710Z,10.50
2022-11-29T12:26:58.617Z,12.00
2022-11-29T12:29:32.356Z,11.80
2022-11-29T12:32:42.650Z,12.10
2022-11-29T12:35:40.912Z,7.10
2022-11-29T12:38:24.681Z,11.60
2022-11-29T12:41:16.444Z,12.10
2022-11-29T12:44:07.806Z,11.70
2022-11-29T12:46:39.334Z,8.30
2022-11-29T12:49:33.682Z,11.10
2022-11-29T12:52:13.690Z,10.60
2022-11-29T12:55:10.332Z,10.80
2022-11-29T12:57:45.996Z,10.60
2022-11-29T13:00:20.471Z,11.00
2022-11-29T13:03:07.172Z,10.90
2022-11-29T13:05:57.023Z,11.00
2022-11-29T13:08:49.249Z,8.10
2022-11-29T13:11:40.380Z,11.50
2022-11-29T13:14:41.986Z,12.10
2022-11-29T13:17:39.746Z,9.70
2022-11-29T13:20:25.637Z,9.50
2022-11-29T13:23:39.158Z,11.10
2022-11-29T13:26:13.964Z,11.80
2022-11-29T13:28:46.502Z,14.10
2022-11-29T13:31:20.577Z,12.40
2022-11-29T13:34:10.561Z,13.20
2022-11-29T13:37:13.193Z,12.80
2022-11-29T13:40:06.204Z,8.00
2022-11-29T13:43:18.027Z,11.80
2022-11-29T13:46:36.866Z,13.70
2022-11-29T13:49:04.849Z,8.80
2022-11-29T13:51:41.287Z,10.40
2022-11-29T13:54:32.825Z,12.00
2022-11-29T13:57:10.496Z,11.20
2022-11-29T13:59:45.881Z,12.40
2022-11-29T14:02:41.860Z,13.40
2022-11-29T14:05:29.046Z,12.10
2022-11-29T14:08:26.783Z,11.10
2022-11-29T14:11:01.965Z,11.60
2022-11-29T14:14:18.077Z,12.40
2022-11-29T14:16:53.775Z,10.90
2022-11-29T14:19:33.453Z,12.90
2022-11-29T14:22:07.738Z,8.20
2022-11-29T14:24:35.600Z,10.00
2022-11-29T14:27:06.794Z,12.30
2022-11-29T14:29:54.129Z,13.20
2022-11-29T14:32:58.959Z,8.80
2022-11-29T14:35:37.798Z,11.60
2022-11-29T14:38:30.708Z,11.90
2022-11-29T14:41:46.011Z,10.40
2022-11-29T14:44:28.351Z,10.40
2022-11-29T14:47:27.349Z,11.90
2022-11-29T14:49:58.185Z,10.90
2022-11-29T14:52:33.791Z,13.40
2022-11-29T14:55:04.946Z,12.00
2022-11-29T14:57:48.247Z,13.30
2022-11-29T15:00:38.903Z,15.30
2022-11-29T15:03:42.975Z,12.60
2022-11-29T15:06:26.372Z,13.90
2022-11-29T15:09:11.207Z,13.20
2022-11-29T15:11:56.934Z,13.00
2022-11-29T15:14:56.701Z,10.90
2022-11-29T15:17:54.708Z,13.10
2022-11-29T15:20:31.389Z,13.90
2022-11-29T15:23:04.336Z,14.30
2022-11-29T15:25:33.345Z,12.60
2022-11-29T15:28:06.091Z,13.60
2022-11-29T15:30:37.112Z,13.50
2022-11-29T15:33:23.884Z,11.70
2022-11-29T15:36:04.940Z,14.30
2022-11-29T15:38:44.086Z,13.90
2022-11-29T15:41:30.535Z,12.40
2022-11-29T15:44:06.250Z,12.60
2022-11-29T15:46:36.052Z,12.60
2022-11-29T15:49:18.861Z,10.60
2022-11-29T15:52:08.530Z,11.90
2022-11-29T15:54:46.301Z,9.90
2022-11-29T15:57:29.169Z,7.80
2022-11-29T16:00:05.600Z,12.40
2022-11-29T16:02:39.383Z,9.40
2022-11-29T16:05:29.822Z,10.90
2022-11-29T16:08:05.007Z,7.70
2022-11-29T16:10:43.563Z,10.70
2022-11-29T16:13:31.321Z,12.60
2022-11-29T16:16:22.136Z,9.90
2022-11-29T16:18:51.267Z,10.80
2022-11-29T16:21:32.130Z,9.20
2022-11-29T16:24:20.172Z,12.50
2022-11-29T16:26:50.995Z,5.60
2022-11-29T16:29:38.392Z,11.00
2022-11-29T16:32:42.623Z,11.20
2022-11-29T16:35:18.834Z,9.00
2022-11-29T16:37:48.029Z,10.10
2022-11-29T16:40:35.592Z,10.80
2022-11-29T16:43:03.509Z,9.50
2022-11-29T16:45:41.857Z,10.50
2022-11-29T16:48:31.219Z,8.90
2022-11-29T16:51:11.266Z,8.90
2022-11-29T16:53:47.978Z,7.10
2022-11-29T16:56:20.657Z,9.90
2022-11-29T16:59:24.844Z,6.10
2022-11-29T17:01:43.239Z,8.90
2022-11-29T17:04:11.124Z,8.50
2022-11-29T17:06:39.283Z,10.20
2022-11-29T17:09:07.465Z,8.50
2022-11-29T17:11:35.515Z,7.30
2022-11-29T17:14:03.543Z,11.40
2022-11-29T17:16:31.545Z,9.30
2022-11-29T17:18:59.421Z,9.60
2022-11-29T17:21:32.517Z,10.20
2022-11-29T17:24:00.377Z,6.00
2022-11-29T17:26:35.861Z,9.60
2022-11-29T17:29:04.102Z,10.60
2022-11-29T17:31:32.840Z,9.60
2022-11-29T17:34:02.560Z,10.40
2022-11-29T17:36:31.366Z,10.70
2022-11-29T17:39:00.688Z,5.70
2022-11-29T17:41:29.402Z,7.50
2022-11-29T17:43:58.172Z,9.30
2022-11-29T17:46:36.177Z,9.80
2022-11-29T17:49:08.536Z,10.40
2022-11-29T17:51:54.237Z,9.50
2022-11-29T17:54:22.981Z,12.40
2022-11-29T17:56:52.150Z,11.00
2022-11-29T17:59:20.595Z,13.30
2022-11-29T18:01:48.672Z,13.60
2022-11-29T18:04:16.830Z,12.10
2022-11-29T18:06:50.005Z,7.60
2022-11-29T18:09:19.777Z,6.80
2022-11-29T18:11:50.103Z,10.90
2022-11-29T18:14:24.042Z,12.40
2022-11-29T18:16:52.467Z,8.60
2022-11-29T18:19:23.058Z,7.60
2022-11-29T18:21:58.149Z,12.00
2022-11-29T18:24:27.385Z,9.20
2022-11-29T18:27:00.319Z,9.00
2022-11-29T18:29:38.283Z,8.10
2022-11-29T18:32:07.549Z,12.30
2022-11-29T18:34:38.839Z,12.60
2022-11-29T18:37:16.014Z,11.60
2022-11-29T18:39:51.706Z,11.40
2022-11-29T18:42:21.708Z,11.70
2022-11-29T18:44:51.725Z,11.80
2022-11-29T18:47:24.566Z,12.00
2022-11-29T18:53:04.537Z,13.50
2022-11-29T18:55:37.258Z,12.10
2022-11-29T18:58:09.475Z,12.00
2022-11-29T19:00:37.780Z,10.60
2022-11-29T19:03:07.200Z,12.00
2022-11-29T19:05:41.043Z,9.00
2022-11-29T19:08:12.288Z,12.10
2022-11-29T19:10:42.184Z,12.30
2022-11-29T19:13:18.672Z,10.40
2022-11-29T19:15:55.932Z,10.60
2022-11-29T19:18:37.041Z,11.00
2022-11-29T19:21:12.697Z,8.70
2022-11-29T19:23:56.188Z,10.40
2022-11-29T19:26:28.130Z,5.70
2022-11-29T19:29:04.141Z,11.80
2022-11-29T19:31:36.343Z,12.20
2022-11-29T19:34:11.478Z,11.30
2022-11-29T19:36:46.363Z,11.60
2022-11-29T19:39:18.129Z,10.20
2022-11-29T19:41:50.254Z,8.30
2022-11-29T19:44:18.528Z,11.40
2022-11-29T19:46:49.563Z,9.60
2022-11-29T19:49:17.756Z,11.60
2022-11-29T19:51:45.831Z,11.10
2022-11-29T19:54:14.260Z,10.00
2022-11-29T19:56:55.775Z,10.30
2022-11-29T19:59:27.251Z,11.50
2022-11-29T20:01:57.487Z,9.20
2022-11-29T20:04:27.620Z,11.50
2022-11-29T20:06:58.145Z,10.80
2022-11-29T20:09:31.645Z,8.20
2022-11-29T20:12:02.011Z,11.30
2022-11-29T20:14:33.557Z,11.70
2022-11-29T20:17:07.842Z,11.20
2022-11-29T20:19:41.622Z,9.80
2022-11-29T20:22:09.822Z,11.90
2022-11-29T20:24:45.351Z,10.30
2022-11-29T20:27:19.496Z,7.60
2022-11-29T20:29:47.796Z,10.10
2022-11-29T20:32:23.701Z,10.50
2022-11-29T20:34:57.478Z,11.20
2022-11-29T20:38:17.259Z,10.50
2022-11-29T20:41:07.820Z,10.40
2022-11-29T20:43:49.709Z,10.30
2022-11-29T20:46:20.094Z,10.10
2022-11-29T20:48:48.695Z,9.50
2022-11-29T20:51:28.609Z,10.60
2022-11-29T20:53:58.992Z,11.40
2022-11-29T20:56:36.846Z,9.80
2022-11-29T20:59:04.794Z,9.00
2022-11-29T21:01:35.642Z,10.20
2022-11-29T21:04:18.849Z,10.50
2022-11-29T21:06:58.797Z,10.30
2022-11-29T21:09:28.633Z,10.50
2022-11-29T21:12:02.817Z,10.40
2022-11-29T21:14:35.729Z,9.40
2022-11-29T21:17:04.596Z,10.60
2022-11-29T21:19:49.755Z,11.20
2022-11-29T21:22:32.491Z,11.80
2022-11-29T21:25:21.476Z,12.10
2022-11-29T21:27:52.705Z,12.30
2022-11-29T21:30:28.251Z,11.90
2022-11-29T21:32:58.611Z,10.30
2022-11-29T21:35:30.148Z,12.00
2022-11-29T21:38:14.770Z,12.60
2022-11-29T21:40:45.086Z,12.10
2022-11-29T21:43:16.074Z,10.20
2022-11-29T21:45:52.519Z,13.20
2022-11-29T21:48:38.241Z,10.70
2022-11-29T21:51:22.437Z,10.40
2022-11-29T21:53:50.947Z,10.40
2022-11-29T21:56:24.401Z,12.20
2022-11-29T21:59:02.819Z,10.40
2022-11-29T22:01:32.382Z,12.10
2022-11-29T22:04:00.714Z,11.10
2022-11-29T22:06:29.559Z,10.40
2022-11-29T22:08:59.864Z,9.50
2022-11-29T22:11:35.531Z,12.20
2022-11-29T22:14:15.803Z,13.30
2022-11-29T22:17:17.705Z,8.60
2022-11-29T22:19:45.666Z,10.20
2022-11-29T22:22:13.991Z,9.70
2022-11-29T22:24:43.306Z,11.70
2022-11-29T22:27:11.329Z,11.10
2022-11-29T22:29:39.178Z,10.40
2022-11-29T22:32:07.174Z,11.00
2022-11-29T22:34:36.671Z,12.00
2022-11-29T22:37:04.772Z,12.50
2022-11-29T22:39:32.709Z,11.40
2022-11-29T22:42:06.239Z,11.10
2022-11-29T22:44:35.190Z,10.80
2022-11-29T22:47:04.139Z,10.90
2022-11-29T22:49:33.733Z,11.10
2022-11-29T22:52:02.309Z,11.20
2022-11-29T22:54:34.088Z,11.30
2022-11-29T22:57:03.098Z,12.50
2022-11-29T22:59:33.808Z,12.70
2022-11-29T23:02:02.470Z,13.00
2022-11-29T23:04:30.479Z,10.40
2022-11-29T23:07:05.635Z,12.30
2022-11-29T23:09:35.347Z,10.00
2022-11-29T23:12:11.124Z,10.30
2022-11-29T23:14:40.744Z,11.50
2022-11-29T23:17:08.765Z,10.60
2022-11-29T23:19:39.394Z,10.30
2022-11-29T23:22:07.723Z,11.10
2022-11-29T23:24:35.659Z,11.30
2022-11-29T23:27:04.597Z,12.50
2022-11-29T23:29:32.539Z,14.10
2022-11-29T23:32:00.481Z,12.00
2022-11-29T23:34:28.424Z,10.40
2022-11-29T23:36:56.319Z,11.40
2022-11-29T23:39:24.190Z,10.60
2022-11-29T23:41:52.113Z,12.20
2022-11-29T23:44:20.026Z,11.00
2022-11-29T23:46:47.915Z,10.90
2022-11-29T23:49:15.862Z,11.30
2022-11-29T23:51:43.664Z,13.90
2022-11-29T23:54:11.641Z,14.90
2022-11-29T23:56:39.603Z,12.20
2022-11-29T23:59:07.653Z,12.20
